Coastal Carolina Regional Airport New Bern US
ICAO: KEWN
IATA: EWN
Category: Medium
Scheduled Services: Yes

Elevation: 18 ft
TransAlt. 18000 ft.

Airport Communications:
CHERRY POINT APP/DEP:119.35
ASOS:118.525
CLNC DEL:120.525
CTAF:124.25
GND:121.7
RALEIGH RDO:122.2
NEW BERN TWR:124.25

KEWN Zoom In..

If you have problems with the map follow the link
https://www.worldairports.se/pages/airport.php?
ICAO=KEWN

Runways:

(A) RW 04 length 6453 ft width 150 ft
ILS 110.50 / hdg 39

(B) RW 14 length 4000 ft width 150 ft
---- / hdg 136

(C) RW 22 length 6453 ft width 150 ft
---- / hdg 219

(D) RW 32 length 4000 ft width 150 ft
---- / hdg 316

Location; KEWN
Day. 18 / Time. 05.54 Zulu
* Altimeter: 30.23
* Temperature: 16° c. 60.8°f.
* Wind from: 350° Speed 08 kn.
Dewpoint: 09° c.
Visibility: 10 Statute Miles.
Clouds: Clear (automated report).

KEWN 180554Z AUTO 35008KT 10SM CLR 16/09 A3023 RMK AO2 SLP237 T01560094 10178 20133 53011 $


Wind From 350°
Speed 08 kn.

 
 
jpsmedia.com for Web Design worldairports.se 2018   terms of use